createdAt,value
2018-05-23T00:01:02.703Z,76.94
2018-05-23T00:03:30.206Z,77.21
2018-05-23T00:05:57.673Z,77.57
2018-05-23T00:08:25.163Z,77.71
2018-05-23T00:10:52.630Z,77.70
2018-05-23T00:13:20.171Z,77.65
2018-05-23T00:15:47.730Z,77.58
2018-05-23T00:18:15.210Z,78.24
2018-05-23T00:20:42.670Z,78.71
2018-05-23T00:23:10.154Z,78.97
2018-05-23T00:25:37.661Z,79.31
2018-05-23T00:28:05.328Z,79.83
2018-05-23T00:30:32.799Z,80.05
2018-05-23T00:33:00.346Z,80.33
2018-05-23T00:35:27.839Z,80.69
2018-05-23T00:37:55.342Z,80.72
2018-05-23T00:40:22.828Z,80.69
2018-05-23T00:42:50.378Z,80.79
2018-05-23T00:45:17.880Z,80.90
2018-05-23T00:47:45.390Z,81.20
2018-05-23T00:50:12.945Z,81.45
2018-05-23T00:52:40.418Z,81.50
2018-05-23T00:55:19.850Z,81.82
2018-05-23T00:57:47.315Z,82.11
2018-05-23T01:00:14.803Z,82.15
2018-05-23T01:02:42.270Z,81.38
2018-05-23T01:05:09.755Z,80.51
2018-05-23T01:07:37.242Z,80.09
2018-05-23T01:10:04.727Z,79.49
2018-05-23T01:12:32.254Z,79.05
2018-05-23T01:14:59.831Z,79.04
2018-05-23T01:17:27.378Z,79.59
2018-05-23T01:19:55.042Z,79.83
2018-05-23T01:22:22.502Z,79.92
2018-05-23T01:24:50.040Z,80.55
2018-05-23T01:27:17.523Z,80.98
2018-05-23T01:29:45.002Z,80.94
2018-05-23T01:32:12.534Z,80.27
2018-05-23T01:34:40.050Z,80.14
2018-05-23T01:37:07.543Z,80.37
2018-05-23T01:39:35.059Z,80.83
2018-05-23T01:42:02.555Z,81.34
2018-05-23T01:44:30.053Z,82.07
2018-05-23T01:46:57.597Z,82.61
2018-05-23T01:49:27.026Z,82.98
2018-05-23T01:51:54.487Z,83.33
2018-05-23T01:54:21.979Z,83.76
2018-05-23T01:56:49.439Z,84.50
2018-05-23T01:59:16.923Z,84.91
2018-05-23T02:01:44.436Z,85.09
2018-05-23T02:04:12.080Z,85.44
2018-05-23T02:06:39.608Z,85.65
2018-05-23T02:09:07.082Z,85.93
2018-05-23T02:11:34.570Z,86.01
2018-05-23T02:14:03.492Z,86.61
2018-05-23T02:16:30.985Z,87.04
2018-05-23T02:18:58.475Z,87.02
2018-05-23T02:21:25.984Z,87.06
2018-05-23T02:23:53.442Z,87.34
2018-05-23T02:26:20.994Z,87.63
2018-05-23T02:28:48.496Z,87.34
2018-05-23T02:31:16.016Z,87.51
2018-05-23T02:33:43.474Z,87.99
2018-05-23T02:36:10.964Z,88.18
2018-05-23T02:38:38.534Z,88.43
2018-05-23T02:41:06.151Z,88.82
2018-05-23T02:43:33.614Z,88.84
2018-05-23T02:46:01.147Z,88.68
2018-05-23T02:48:28.634Z,88.58
2018-05-23T02:50:56.123Z,88.53
2018-05-23T02:53:23.659Z,88.53
2018-05-23T02:55:51.231Z,88.63
2018-05-23T02:58:18.768Z,88.72
2018-05-23T03:00:46.255Z,88.81
2018-05-23T03:03:13.778Z,88.86
2018-05-23T03:05:41.239Z,89.08
2018-05-23T03:08:08.726Z,89.25
2018-05-23T03:10:36.203Z,89.52
2018-05-23T03:13:03.702Z,89.80
2018-05-23T03:15:31.177Z,89.98
2018-05-23T03:17:58.743Z,90.22
2018-05-23T03:20:26.286Z,90.41
2018-05-23T03:22:53.778Z,90.43
2018-05-23T03:25:21.243Z,90.33
2018-05-23T03:27:48.727Z,90.25
2018-05-23T03:30:16.219Z,90.17
2018-05-23T03:32:43.706Z,90.13
2018-05-23T03:35:11.248Z,90.15
2018-05-23T03:37:38.771Z,90.16
2018-05-23T03:40:06.235Z,90.30
2018-05-23T03:42:33.732Z,90.39
2018-05-23T03:45:01.285Z,90.20
2018-05-23T03:47:28.772Z,90.12
2018-05-23T03:49:56.295Z,90.06
2018-05-23T03:52:23.868Z,89.93
2018-05-23T03:54:51.337Z,89.84
2018-05-23T03:57:18.831Z,89.87
2018-05-23T03:59:58.206Z,90.02
2018-05-23T04:02:37.451Z,90.11
2018-05-23T04:05:16.870Z,90.02
2018-05-23T04:07:44.351Z,89.90
2018-05-23T04:10:11.814Z,89.38
2018-05-23T04:12:39.318Z,89.16
2018-05-23T04:15:06.807Z,88.66
2018-05-23T04:17:34.285Z,88.00
2018-05-23T04:20:01.831Z,87.35
2018-05-23T04:22:29.314Z,86.75
2018-05-23T04:24:56.902Z,86.14
2018-05-23T04:27:24.379Z,85.85
2018-05-23T04:29:51.871Z,84.85
2018-05-23T04:32:19.354Z,84.37
2018-05-23T04:34:46.818Z,84.18
2018-05-23T04:37:14.307Z,83.62
2018-05-23T04:39:41.775Z,83.29
2018-05-23T04:42:09.259Z,83.20
2018-05-23T04:44:36.751Z,83.25
2018-05-23T04:47:04.221Z,83.01
2018-05-23T04:49:31.747Z,82.51
2018-05-23T04:51:59.210Z,82.08
2018-05-23T04:54:26.699Z,81.43
2018-05-23T04:56:55.095Z,80.72
2018-05-23T04:59:22.580Z,80.30
2018-05-23T05:01:50.055Z,79.67
2018-05-23T05:04:17.603Z,79.51
2018-05-23T05:06:45.143Z,78.11
2018-05-23T05:09:12.631Z,77.82
2018-05-23T05:11:40.102Z,77.52
2018-05-23T05:14:07.603Z,77.20
2018-05-23T05:16:35.072Z,77.35
2018-05-23T05:19:02.587Z,76.42
2018-05-23T05:21:30.046Z,76.10
2018-05-23T05:23:57.534Z,75.16
2018-05-23T05:26:25.096Z,74.84
2018-05-23T05:28:52.691Z,74.04
2018-05-23T05:31:20.146Z,73.99
2018-05-23T05:33:47.640Z,74.17
2018-05-23T05:36:15.104Z,73.99
2018-05-23T05:38:42.673Z,73.43
2018-05-23T05:41:10.183Z,73.27
2018-05-23T05:43:37.683Z,73.75
2018-05-23T05:46:05.218Z,72.26
2018-05-23T05:48:32.754Z,71.51
2018-05-23T05:51:00.315Z,72.04
2018-05-23T05:53:27.882Z,72.29
2018-05-23T05:55:55.366Z,71.63
2018-05-23T05:58:22.830Z,70.11
2018-05-23T06:00:50.311Z,69.54
2018-05-23T06:03:17.779Z,68.51
2018-05-23T06:05:45.263Z,67.78
2018-05-23T06:08:12.731Z,69.54
2018-05-23T06:10:40.282Z,67.83
2018-05-23T06:13:07.847Z,67.78
2018-05-23T06:15:35.326Z,68.03
2018-05-23T06:18:02.782Z,67.22
2018-05-23T06:20:30.272Z,67.23
2018-05-23T06:22:57.755Z,66.49
2018-05-23T06:25:25.263Z,65.44
2018-05-23T06:27:52.795Z,65.20
2018-05-23T06:30:20.334Z,65.77
2018-05-23T06:32:47.782Z,65.18
2018-05-23T06:35:15.327Z,64.32
2018-05-23T06:37:42.834Z,63.88
2018-05-23T06:40:10.331Z,63.34
2018-05-23T06:42:37.828Z,64.08
2018-05-23T06:45:05.344Z,62.68
2018-05-23T06:47:32.858Z,62.71
2018-05-23T06:50:00.358Z,62.67
2018-05-23T06:52:27.846Z,61.43
2018-05-23T06:54:55.337Z,63.25
2018-05-23T06:57:22.821Z,63.31
2018-05-23T06:59:50.319Z,62.25
2018-05-23T07:02:17.806Z,61.90
2018-05-23T07:04:45.267Z,61.41
2018-05-23T07:07:12.839Z,62.43
2018-05-23T07:09:40.325Z,62.05
2018-05-23T07:12:07.816Z,62.06
2018-05-23T07:14:36.321Z,63.09
2018-05-23T07:17:03.806Z,62.01
2018-05-23T07:19:31.274Z,60.76
2018-05-23T07:21:58.823Z,62.00
2018-05-23T07:24:26.287Z,61.53
2018-05-23T07:26:53.774Z,61.09
2018-05-23T07:29:21.259Z,61.49
2018-05-23T07:31:48.788Z,61.52
2018-05-23T07:34:16.300Z,61.33
2018-05-23T07:36:43.806Z,60.10
2018-05-23T07:39:11.293Z,61.41
2018-05-23T07:41:38.810Z,60.57
2018-05-23T07:44:06.292Z,60.21
2018-05-23T07:46:33.779Z,59.09
2018-05-23T07:49:01.327Z,58.18
2018-05-23T07:51:28.902Z,57.81
2018-05-23T07:53:56.441Z,56.75
2018-05-23T07:56:23.955Z,57.10
2018-05-23T07:58:51.446Z,56.79
2018-05-23T08:01:18.919Z,57.15
2018-05-23T08:03:46.431Z,56.98
2018-05-23T08:06:13.908Z,59.71
2018-05-23T08:08:41.444Z,56.58
2018-05-23T08:11:08.911Z,55.67
2018-05-23T08:13:36.423Z,53.88
2018-05-23T08:16:03.995Z,53.22
2018-05-23T08:18:31.555Z,53.36
2018-05-23T08:20:59.042Z,52.89
2018-05-23T08:23:26.610Z,52.24
2018-05-23T08:25:54.090Z,53.33
2018-05-23T08:28:21.574Z,53.50
2018-05-23T08:30:49.037Z,54.08
2018-05-23T08:33:16.603Z,52.18
2018-05-23T08:35:44.099Z,51.13
2018-05-23T08:38:11.622Z,52.07
2018-05-23T08:40:39.117Z,52.54
2018-05-23T08:43:06.743Z,51.14
2018-05-23T08:45:34.230Z,51.84
2018-05-23T08:48:01.723Z,52.89
2018-05-23T08:50:29.215Z,52.82
2018-05-23T08:52:56.698Z,51.87
2018-05-23T08:55:24.175Z,51.21
2018-05-23T08:57:51.695Z,52.26
2018-05-23T09:00:19.188Z,51.31
2018-05-23T09:02:46.711Z,53.06
2018-05-23T09:05:14.187Z,52.89
2018-05-23T09:07:41.683Z,52.62
2018-05-23T09:10:09.186Z,51.38
2018-05-23T09:12:36.808Z,50.72
2018-05-23T09:15:04.164Z,49.75
2018-05-23T09:17:31.667Z,49.63
2018-05-23T09:19:59.159Z,48.48
2018-05-23T09:22:26.638Z,47.98
2018-05-23T09:24:54.135Z,48.07
2018-05-23T09:27:22.595Z,49.26
2018-05-23T09:29:50.169Z,49.18
2018-05-23T09:32:17.689Z,46.23
2018-05-23T09:34:45.222Z,45.75
2018-05-23T09:37:12.685Z,46.41
2018-05-23T09:39:40.234Z,44.58
2018-05-23T09:42:07.704Z,45.46
2018-05-23T09:44:35.209Z,44.70
2018-05-23T09:47:02.693Z,43.29
2018-05-23T09:49:30.184Z,42.91
2018-05-23T09:51:57.673Z,41.41
2018-05-23T09:54:25.198Z,42.56
2018-05-23T09:56:52.694Z,44.18
2018-05-23T09:59:20.236Z,43.77
2018-05-23T10:01:47.754Z,43.02
2018-05-23T10:04:15.268Z,44.63
2018-05-23T10:06:42.906Z,42.76
2018-05-23T10:09:10.427Z,41.91
2018-05-23T10:11:38.012Z,40.94
2018-05-23T10:14:05.566Z,40.54
2018-05-23T10:16:33.040Z,38.73
2018-05-23T10:19:00.546Z,39.16
2018-05-23T10:21:28.023Z,39.95
2018-05-23T10:23:55.525Z,40.81
2018-05-23T10:26:23.010Z,39.97
2018-05-23T10:28:50.493Z,41.07
2018-05-23T10:31:17.979Z,40.36
2018-05-23T10:33:45.456Z,39.78
2018-05-23T10:36:12.958Z,43.07
2018-05-23T10:38:40.508Z,41.57
2018-05-23T10:41:07.966Z,36.95
2018-05-23T10:43:35.429Z,36.68
2018-05-23T10:46:02.914Z,35.71
2018-05-23T10:48:30.459Z,35.90
2018-05-23T10:50:57.954Z,34.17
2018-05-23T10:53:29.400Z,36.47
2018-05-23T10:55:56.939Z,37.78
2018-05-23T10:58:24.691Z,37.99
2018-05-23T11:00:52.215Z,39.76
2018-05-23T11:03:19.734Z,37.12
2018-05-23T11:05:47.340Z,35.02
2018-05-23T11:08:17.251Z,34.09
2018-05-23T11:10:44.873Z,30.85
2018-05-23T11:13:15.179Z,30.83
2018-05-23T11:15:42.693Z,30.55
2018-05-23T11:18:10.186Z,31.08
2018-05-23T11:20:37.857Z,28.38
2018-05-23T11:23:05.463Z,30.19
2018-05-23T11:25:32.983Z,28.82
2018-05-23T11:28:00.450Z,29.05
2018-05-23T11:30:27.975Z,31.89
2018-05-23T11:32:55.480Z,31.16
2018-05-23T11:35:22.983Z,32.67
2018-05-23T11:37:50.503Z,30.71
2018-05-23T11:40:17.986Z,30.94
2018-05-23T11:42:45.482Z,27.76
2018-05-23T11:45:12.955Z,24.11
2018-05-23T11:47:40.501Z,25.48
2018-05-23T11:50:08.008Z,25.72
2018-05-23T11:52:35.626Z,28.99
2018-05-23T11:55:03.171Z,30.09
2018-05-23T11:57:30.730Z,28.35
2018-05-23T11:59:59.275Z,27.63
2018-05-23T12:02:26.768Z,26.40
2018-05-23T12:04:54.238Z,27.89
2018-05-23T12:07:21.873Z,26.37
2018-05-23T12:09:49.456Z,27.53
2018-05-23T12:12:16.955Z,28.69
2018-05-23T12:14:44.663Z,31.68
2018-05-23T12:17:12.206Z,34.01
2018-05-23T12:19:39.867Z,34.06
2018-05-23T12:22:07.355Z,36.17
2018-05-23T12:24:34.866Z,36.76
2018-05-23T12:27:03.410Z,38.11
2018-05-23T12:29:30.878Z,38.60
2018-05-23T12:31:58.385Z,38.88
2018-05-23T12:34:25.855Z,39.27
2018-05-23T12:36:53.351Z,40.31
2018-05-23T12:39:21.038Z,41.99
2018-05-23T12:41:48.690Z,41.90
2018-05-23T12:44:16.170Z,42.98
2018-05-23T12:46:43.742Z,43.53
2018-05-23T12:49:11.386Z,43.81
2018-05-23T12:51:38.946Z,44.47
2018-05-23T12:54:06.599Z,44.79
2018-05-23T12:56:34.091Z,44.91
2018-05-23T12:59:01.717Z,45.51
2018-05-23T13:01:29.211Z,46.37
2018-05-23T13:03:56.715Z,44.73
2018-05-23T13:06:24.239Z,44.76
2018-05-23T13:08:51.812Z,45.65
2018-05-23T13:11:19.343Z,42.50
2018-05-23T13:13:49.487Z,41.79
2018-05-23T13:16:17.331Z,42.35
2018-05-23T13:18:47.523Z,42.58
2018-05-23T13:21:17.354Z,41.80
2018-05-23T13:23:44.987Z,41.89
2018-05-23T13:26:12.476Z,41.96
2018-05-23T13:28:40.195Z,40.54
2018-05-23T13:31:07.769Z,39.09
2018-05-23T13:33:35.282Z,38.93
2018-05-23T13:36:02.751Z,37.49
2018-05-23T13:38:30.240Z,36.70
2018-05-23T13:40:57.703Z,36.29
2018-05-23T13:43:25.203Z,37.45
2018-05-23T13:45:52.667Z,35.66
2018-05-23T13:48:20.251Z,34.94
2018-05-23T13:50:47.807Z,35.76
2018-05-23T13:53:15.314Z,36.00
2018-05-23T13:55:43.058Z,34.97
2018-05-23T13:58:10.566Z,38.07
2018-05-23T14:00:38.027Z,36.13
2018-05-23T14:03:05.530Z,37.25
2018-05-23T14:05:33.058Z,36.88
2018-05-23T14:08:00.522Z,36.21
2018-05-23T14:10:28.220Z,35.92
2018-05-23T14:12:55.849Z,36.47
2018-05-23T14:15:23.431Z,35.11
2018-05-23T14:17:50.895Z,35.38
2018-05-23T14:20:18.436Z,36.02
2018-05-23T14:22:45.991Z,28.84
2018-05-23T14:25:13.474Z,22.53
2018-05-23T14:27:41.000Z,24.17
2018-05-23T14:30:08.486Z,28.04
2018-05-23T14:32:35.987Z,28.30
2018-05-23T14:35:03.496Z,29.51
2018-05-23T14:37:30.957Z,32.81
2018-05-23T14:39:58.447Z,34.30
2018-05-23T14:42:26.678Z,34.95
2018-05-23T14:44:54.227Z,34.25
2018-05-23T14:47:21.706Z,34.23
2018-05-23T14:49:49.259Z,33.96
2018-05-23T14:52:16.741Z,34.74
2018-05-23T14:54:44.302Z,35.41
2018-05-23T14:57:11.766Z,34.77
2018-05-23T14:59:39.323Z,35.49
2018-05-23T15:02:06.875Z,34.55
2018-05-23T15:04:34.375Z,31.43
2018-05-23T15:07:02.267Z,28.04
2018-05-23T15:09:29.877Z,28.57
2018-05-23T15:11:57.382Z,30.16
2018-05-23T15:14:25.002Z,30.68
2018-05-23T15:16:52.411Z,32.09
2018-05-23T15:19:19.908Z,38.42
2018-05-23T15:21:47.383Z,41.71
2018-05-23T15:24:14.870Z,42.83
2018-05-23T15:26:42.343Z,41.91
2018-05-23T15:29:09.814Z,42.66
2018-05-23T15:31:37.362Z,42.35
2018-05-23T15:34:04.827Z,44.41
2018-05-23T15:36:32.335Z,47.51
2018-05-23T15:39:00.722Z,48.01
2018-05-23T15:41:28.226Z,49.32
2018-05-23T15:43:55.690Z,49.67
2018-05-23T15:46:23.223Z,50.44
2018-05-23T15:48:50.687Z,50.98
2018-05-23T15:51:18.447Z,51.47
2018-05-23T15:53:45.903Z,52.64
2018-05-23T15:56:13.647Z,53.08
2018-05-23T15:58:41.130Z,52.38
2018-05-23T16:01:09.103Z,52.82
2018-05-23T16:03:36.575Z,53.18
2018-05-23T16:06:04.063Z,53.10
2018-05-23T16:08:31.563Z,53.78
2018-05-23T16:10:59.139Z,53.92
2018-05-23T16:13:26.690Z,53.66
2018-05-23T16:15:54.195Z,53.49
2018-05-23T16:18:21.681Z,54.63
2018-05-23T16:20:49.200Z,54.05
2018-05-23T16:23:16.724Z,53.92
2018-05-23T16:25:44.219Z,55.46
2018-05-23T16:28:11.707Z,54.93
2018-05-23T16:30:39.211Z,55.05
2018-05-23T16:33:06.759Z,55.14
2018-05-23T16:35:34.265Z,55.17
2018-05-23T16:38:01.791Z,54.86
2018-05-23T16:40:29.343Z,55.03
2018-05-23T16:42:56.893Z,54.21
2018-05-23T16:45:24.457Z,53.80
2018-05-23T16:47:56.653Z,53.67
2018-05-23T16:50:24.379Z,53.53
2018-05-23T16:52:51.984Z,53.85
2018-05-23T16:55:19.461Z,53.55
2018-05-23T16:57:46.998Z,51.71
2018-05-23T17:00:14.470Z,49.91
2018-05-23T17:02:41.954Z,48.82
2018-05-23T17:05:09.421Z,47.87
2018-05-23T17:07:36.917Z,45.55
2018-05-23T17:10:04.433Z,43.87
2018-05-23T17:12:32.016Z,43.25
2018-05-23T17:14:59.395Z,43.80
2018-05-23T17:17:27.240Z,42.85
2018-05-23T17:19:54.671Z,42.81
2018-05-23T17:22:22.154Z,42.15
2018-05-23T17:24:49.697Z,41.70
2018-05-23T17:27:17.298Z,42.28
2018-05-23T17:29:44.726Z,43.66
2018-05-23T17:32:12.213Z,43.93
2018-05-23T17:34:39.756Z,45.50
2018-05-23T17:37:07.525Z,46.01
2018-05-23T17:39:35.041Z,46.96
2018-05-23T17:42:02.535Z,47.39
2018-05-23T17:44:30.003Z,48.90
2018-05-23T17:46:57.495Z,50.89
2018-05-23T17:49:25.000Z,51.32
2018-05-23T17:51:52.491Z,51.26
2018-05-23T17:54:19.954Z,53.97
2018-05-23T17:56:47.490Z,55.54
2018-05-23T17:59:14.958Z,56.64
2018-05-23T18:01:42.422Z,58.33
2018-05-23T18:04:09.906Z,58.87
2018-05-23T18:06:37.383Z,59.31
2018-05-23T18:09:05.666Z,60.01
2018-05-23T18:11:33.121Z,60.33
2018-05-23T18:14:00.618Z,61.29
2018-05-23T18:16:28.089Z,61.97
2018-05-23T18:18:55.577Z,62.23
2018-05-23T18:21:23.054Z,62.39
2018-05-23T18:23:50.576Z,62.67
2018-05-23T18:26:18.137Z,62.92
2018-05-23T18:28:45.654Z,63.49
2018-05-23T18:31:13.129Z,63.68
2018-05-23T18:33:40.626Z,64.61
2018-05-23T18:36:08.097Z,64.63
2018-05-23T18:38:35.587Z,64.89
2018-05-23T18:41:03.049Z,65.78
2018-05-23T18:43:30.615Z,66.06
2018-05-23T18:45:58.034Z,66.65
2018-05-23T18:48:25.523Z,66.79
2018-05-23T18:50:56.822Z,67.99
2018-05-23T18:53:24.329Z,68.65
2018-05-23T18:55:51.789Z,68.98
2018-05-23T18:58:19.274Z,69.45
2018-05-23T19:00:46.739Z,70.22
2018-05-23T19:03:14.226Z,70.95
2018-05-23T19:05:41.758Z,71.46
2018-05-23T19:08:09.270Z,72.36
2018-05-23T19:10:36.738Z,72.67
2018-05-23T19:13:04.246Z,73.19
2018-05-23T19:15:31.754Z,73.54
2018-05-23T19:17:59.224Z,74.19
2018-05-23T19:20:30.394Z,74.57
2018-05-23T19:22:57.877Z,75.10
2018-05-23T19:25:25.378Z,75.90
2018-05-23T19:27:52.854Z,76.67
2018-05-23T19:30:20.509Z,76.80
2018-05-23T19:32:47.982Z,77.75
2018-05-23T19:35:15.484Z,78.12
2018-05-23T19:37:42.988Z,78.52
2018-05-23T19:40:10.508Z,78.98
2018-05-23T19:42:38.000Z,79.33
2018-05-23T19:45:05.497Z,79.74
2018-05-23T19:47:32.978Z,79.94
2018-05-23T19:50:00.478Z,80.09
2018-05-23T19:52:27.958Z,80.46
2018-05-23T19:54:55.462Z,80.99
2018-05-23T19:57:22.930Z,81.00
2018-05-23T19:59:50.501Z,80.95
2018-05-23T20:02:17.972Z,81.10
2018-05-23T20:04:45.498Z,81.32
2018-05-23T20:07:12.989Z,81.61
2018-05-23T20:09:40.480Z,81.65
2018-05-23T20:12:07.963Z,82.05
2018-05-23T20:14:35.458Z,82.19
2018-05-23T20:17:02.939Z,81.85
2018-05-23T20:19:30.454Z,81.76
2018-05-23T20:21:57.952Z,81.74
2018-05-23T20:24:25.552Z,81.59
2018-05-23T20:26:53.018Z,81.29
2018-05-23T20:29:20.613Z,80.90
2018-05-23T20:31:48.038Z,80.86
2018-05-23T20:34:15.517Z,80.96
2018-05-23T20:36:43.012Z,80.90
2018-05-23T20:39:12.760Z,80.79
2018-05-23T20:41:40.370Z,80.55
2018-05-23T20:44:07.942Z,79.93
2018-05-23T20:46:35.487Z,80.17
2018-05-23T20:49:02.983Z,79.89
2018-05-23T20:51:30.494Z,79.94
2018-05-23T20:53:57.979Z,80.20
2018-05-23T20:56:25.482Z,80.59
2018-05-23T20:58:53.023Z,80.69
2018-05-23T21:01:20.523Z,80.49
2018-05-23T21:03:48.059Z,81.04
2018-05-23T21:06:15.583Z,80.89
2018-05-23T21:08:43.161Z,80.81
2018-05-23T21:11:10.654Z,80.55
2018-05-23T21:13:38.212Z,80.68
2018-05-23T21:16:05.707Z,81.13
2018-05-23T21:18:33.191Z,80.88
2018-05-23T21:21:00.690Z,80.94
2018-05-23T21:23:28.162Z,81.03
2018-05-23T21:25:55.694Z,81.16
2018-05-23T21:28:23.175Z,81.25
2018-05-23T21:30:50.698Z,81.02
2018-05-23T21:33:18.162Z,81.35
2018-05-23T21:35:45.683Z,81.35
2018-05-23T21:38:13.206Z,81.22
2018-05-23T21:40:40.794Z,81.31
2018-05-23T21:43:08.265Z,81.55
2018-05-23T21:45:35.766Z,81.63
2018-05-23T21:48:03.303Z,81.86
2018-05-23T21:50:30.770Z,81.86
2018-05-23T21:52:58.282Z,81.98
2018-05-23T21:55:25.839Z,81.90
2018-05-23T21:57:53.355Z,81.81
2018-05-23T22:00:20.847Z,81.64
2018-05-23T22:02:48.340Z,81.52
2018-05-23T22:05:15.810Z,81.58
2018-05-23T22:07:43.294Z,81.62
2018-05-23T22:10:10.770Z,81.63
2018-05-23T22:12:38.394Z,81.69
2018-05-23T22:15:05.918Z,81.63
2018-05-23T22:17:33.403Z,81.56
2018-05-23T22:20:00.882Z,81.74
2018-05-23T22:22:28.446Z,81.68
2018-05-23T22:24:55.890Z,81.73
2018-05-23T22:27:23.377Z,82.17
2018-05-23T22:29:51.030Z,82.17
2018-05-23T22:32:18.520Z,82.32
2018-05-23T22:34:46.034Z,82.33
2018-05-23T22:37:13.517Z,82.54
2018-05-23T22:39:40.986Z,82.57
2018-05-23T22:42:08.486Z,82.72
2018-05-23T22:44:35.959Z,82.83
2018-05-23T22:47:03.451Z,82.47
2018-05-23T22:49:30.998Z,82.38
2018-05-23T22:51:58.493Z,82.27
2018-05-23T22:54:26.036Z,82.15
2018-05-23T22:56:53.584Z,82.16
2018-05-23T22:59:21.079Z,82.55
2018-05-23T23:01:48.574Z,82.50
2018-05-23T23:04:16.063Z,82.39
2018-05-23T23:06:43.611Z,82.26
2018-05-23T23:09:11.115Z,82.12
2018-05-23T23:11:38.622Z,81.82
2018-05-23T23:14:06.190Z,81.72
2018-05-23T23:16:33.747Z,81.60
2018-05-23T23:19:01.322Z,80.83
2018-05-23T23:21:28.791Z,80.88
2018-05-23T23:23:56.331Z,80.49
2018-05-23T23:26:23.887Z,80.55
2018-05-23T23:28:51.402Z,80.64
2018-05-23T23:31:18.878Z,80.48
2018-05-23T23:33:46.374Z,80.51
2018-05-23T23:36:13.898Z,80.66
2018-05-23T23:38:41.387Z,80.57
2018-05-23T23:41:08.957Z,80.41
2018-05-23T23:43:36.452Z,80.10
2018-05-23T23:46:03.932Z,79.92
2018-05-23T23:48:31.427Z,80.20
2018-05-23T23:50:58.894Z,80.48
2018-05-23T23:53:26.429Z,81.10
2018-05-23T23:55:53.894Z,81.50
2018-05-23T23:58:21.362Z,82.46
